Time;durP1;ratioP1;P1;durP2;ratioP2;P2;SDS_P1;SDS_P2;PMS_P1;PMS_P2;Temp;Humidity;BMP_temperature;BMP_pressure;BME280_temperature;BME280_humidity;BME280_pressure;Samples;Min_cycle;Max_cycle;Signal;HPM_P1;HPM_P2
2021/08/23 00:01:22;;;;;;;4.88;2.30;;;16.20;99.90;;;;;;5032254;28;20065;-83
2021/08/23 00:03:50;;;;;;;6.20;2.50;;;16.30;99.90;;;;;;5032764;28;20386;-82
2021/08/23 00:06:17;;;;;;;4.68;2.33;;;16.20;99.90;;;;;;5032484;28;20053;-83
2021/08/23 00:08:44;;;;;;;5.32;2.17;;;16.20;99.90;;;;;;5032746;28;20805;-83
2021/08/23 00:11:11;;;;;;;4.47;2.00;;;16.30;99.90;;;;;;5032235;28;20503;-83
2021/08/23 00:13:38;;;;;;;6.45;2.15;;;16.20;99.90;;;;;;5032647;28;20116;-83
2021/08/23 00:16:06;;;;;;;5.68;2.22;;;16.20;99.90;;;;;;5032585;28;20072;-84
2021/08/23 00:18:34;;;;;;;5.90;2.50;;;16.20;99.90;;;;;;5032593;28;20080;-83
2021/08/23 00:21:02;;;;;;;4.57;2.50;;;16.20;99.90;;;;;;5032019;28;20053;-84
2021/08/23 00:23:36;;;;;;;4.97;2.50;;;16.20;99.90;;;;;;5032400;28;20042;-84
2021/08/23 00:26:04;;;;;;;5.87;2.10;;;16.20;99.90;;;;;;5032556;28;20076;-84
2021/08/23 00:28:31;;;;;;;4.38;2.38;;;16.30;99.90;;;;;;5032164;28;20292;-84
2021/08/23 00:30:58;;;;;;;4.13;2.25;;;16.20;99.90;;;;;;5032486;28;20056;-84
2021/08/23 00:33:25;;;;;;;6.95;2.40;;;16.20;99.90;;;;;;5031827;28;20045;-84
2021/08/23 00:35:52;;;;;;;4.35;2.40;;;16.20;99.90;;;;;;5032396;28;20394;-83
2021/08/23 00:38:20;;;;;;;6.38;2.30;;;16.20;99.90;;;;;;5031950;28;20049;-83
2021/08/23 00:40:47;;;;;;;7.22;2.80;;;16.20;99.90;;;;;;5032032;28;20060;-83
2021/08/23 00:43:14;;;;;;;4.88;2.20;;;16.20;99.90;;;;;;5031540;28;20049;-83
2021/08/23 00:45:42;;;;;;;4.20;2.05;;;16.20;99.90;;;;;;5032151;28;20048;-83
2021/08/23 00:48:10;;;;;;;4.85;2.40;;;16.20;99.90;;;;;;5031956;28;20045;-83
2021/08/23 00:50:37;;;;;;;6.45;2.35;;;16.30;99.90;;;;;;5031580;28;20438;-84
2021/08/23 00:53:05;;;;;;;3.30;1.85;;;16.20;99.90;;;;;;5032156;28;20052;-84
2021/08/23 00:55:34;;;;;;;5.55;2.15;;;16.20;99.90;;;;;;5031463;28;20042;-84
2021/08/23 00:58:01;;;;;;;3.90;1.75;;;16.20;99.90;;;;;;5035412;28;20534;-84
2021/08/23 01:00:30;;;;;;;4.47;2.13;;;16.30;99.90;;;;;;5034934;28;20141;-84
2021/08/23 01:03:02;;;;;;;5.28;2.20;;;16.20;99.90;;;;;;5034420;28;20045;-84
2021/08/23 01:05:32;;;;;;;5.03;2.30;;;16.30;99.90;;;;;;5035613;28;20127;-84
2021/08/23 01:08:04;;;;;;;3.83;1.90;;;16.30;99.90;;;;;;5035217;28;20402;-83
2021/08/23 01:10:38;;;;;;;5.95;2.20;;;16.30;99.90;;;;;;5035452;28;20494;-84
2021/08/23 01:13:06;;;;;;;4.88;2.20;;;16.30;99.90;;;;;;5035322;28;20045;-85
2021/08/23 01:15:33;;;;;;;4.30;2.00;;;16.30;99.90;;;;;;5035446;28;20042;-84
2021/08/23 01:18:00;;;;;;;4.30;2.17;;;16.30;99.90;;;;;;5035050;28;20491;-84
2021/08/23 01:20:28;;;;;;;3.17;1.90;;;16.30;99.90;;;;;;5035069;28;20087;-83
2021/08/23 01:22:56;;;;;;;3.85;1.90;;;16.30;99.90;;;;;;5035025;28;20049;-83
2021/08/23 01:25:29;;;;;;;6.00;2.22;;;16.30;99.90;;;;;;5034719;28;20059;-84
2021/08/23 01:28:17;;;;;;;5.85;2.10;;;16.30;99.90;;;;;;5035166;28;20052;-84
2021/08/23 01:30:59;;;;;;;4.40;2.15;;;16.30;99.90;;;;;;5019230;28;20490;-85
2021/08/23 01:33:28;;;;;;;3.83;1.95;;;16.30;99.90;;;;;;5031000;28;20049;-84
2021/08/23 01:35:56;;;;;;;5.38;2.22;;;16.30;99.90;;;;;;5031566;28;20049;-84
2021/08/23 01:38:23;;;;;;;6.40;2.20;;;16.30;99.90;;;;;;5031316;28;20045;-83
2021/08/23 01:40:59;;;;;;;4.43;2.17;;;16.30;99.90;;;;;;5031482;28;20052;-83
2021/08/23 01:43:26;;;;;;;4.85;2.13;;;16.20;99.90;;;;;;5031136;28;20079;-84
2021/08/23 01:45:54;;;;;;;4.57;2.30;;;16.20;99.90;;;;;;5031023;28;20405;-83
2021/08/23 01:48:21;;;;;;;5.57;1.90;;;16.20;99.90;;;;;;5021835;28;20136;-83
2021/08/23 01:50:49;;;;;;;5.70;2.20;;;16.20;99.90;;;;;;5031011;28;20045;-84
2021/08/23 01:53:17;;;;;;;4.95;2.08;;;16.20;99.90;;;;;;5031179;28;20132;-84
2021/08/23 01:55:44;;;;;;;4.50;1.83;;;16.20;99.90;;;;;;5031174;28;20047;-83
2021/08/23 01:58:11;;;;;;;3.95;2.10;;;16.20;99.90;;;;;;5030828;28;20122;-84
2021/08/23 02:00:38;;;;;;;4.32;2.25;;;16.20;99.90;;;;;;5031116;28;20045;-83
2021/08/23 02:03:06;;;;;;;4.85;2.20;;;16.20;99.90;;;;;;5030998;28;20558;-83
2021/08/23 02:05:33;;;;;;;5.20;1.80;;;16.20;99.90;;;;;;5030990;28;20045;-84
2021/08/23 02:08:01;;;;;;;4.40;2.10;;;16.10;99.90;;;;;;5031173;28;20136;-84
2021/08/23 02:10:29;;;;;;;4.68;2.08;;;16.20;99.90;;;;;;5030824;28;20554;-84
2021/08/23 02:12:56;;;;;;;6.28;2.03;;;16.20;99.90;;;;;;5030765;28;20045;-84
2021/08/23 02:15:23;;;;;;;4.40;1.85;;;16.20;99.90;;;;;;5030550;28;20057;-83
2021/08/23 02:17:50;;;;;;;3.80;1.90;;;16.20;99.90;;;;;;5030147;28;20059;-84
2021/08/23 02:20:18;;;;;;;4.65;2.00;;;16.20;99.90;;;;;;5030340;28;20045;-84
2021/08/23 02:22:47;;;;;;;4.75;2.42;;;16.20;99.90;;;;;;5030439;28;20055;-83
2021/08/23 02:25:21;;;;;;;4.22;2.00;;;16.20;99.90;;;;;;5030502;28;20053;-83
2021/08/23 02:27:49;;;;;;;6.35;2.00;;;16.10;99.90;;;;;;5033806;28;20254;-83
2021/08/23 02:30:16;;;;;;;5.80;2.30;;;16.20;99.90;;;;;;5033715;28;20049;-83
2021/08/23 02:32:44;;;;;;;6.18;1.98;;;16.10;99.90;;;;;;5033915;28;20045;-82
2021/08/23 02:35:11;;;;;;;4.22;1.92;;;16.20;99.90;;;;;;5033807;28;20046;-83
2021/08/23 02:37:39;;;;;;;5.13;1.95;;;16.20;99.90;;;;;;5033748;28;20051;-84
2021/08/23 02:40:08;;;;;;;3.47;1.88;;;16.10;99.90;;;;;;5033608;28;20055;-84
2021/08/23 02:42:36;;;;;;;6.63;2.13;;;16.20;99.90;;;;;;5033244;28;20045;-84
2021/08/23 02:45:05;;;;;;;4.85;2.15;;;16.10;99.90;;;;;;5033465;28;20081;-83
2021/08/23 02:47:35;;;;;;;6.25;1.92;;;16.20;99.90;;;;;;5033294;28;20505;-84
2021/08/23 02:50:02;;;;;;;4.00;1.70;;;16.10;99.90;;;;;;5033334;28;20128;-83
2021/08/23 02:52:29;;;;;;;4.55;1.90;;;16.20;99.90;;;;;;5033015;28;20045;-83
2021/08/23 02:54:57;;;;;;;5.53;1.92;;;16.10;99.90;;;;;;5033274;28;20038;-84
2021/08/23 02:57:24;;;;;;;5.05;1.83;;;16.10;99.90;;;;;;5033501;28;20056;-84
2021/08/23 02:59:52;;;;;;;6.30;2.00;;;16.10;99.90;;;;;;5033396;28;20041;-84
2021/08/23 03:02:20;;;;;;;4.43;1.90;;;16.10;99.90;;;;;;5031335;28;20574;-84
2021/08/23 03:04:47;;;;;;;4.93;1.90;;;16.10;99.90;;;;;;5014940;28;20123;-85
2021/08/23 03:07:14;;;;;;;6.60;2.35;;;16.10;99.90;;;;;;5029778;28;20252;-84
2021/08/23 03:09:41;;;;;;;5.25;1.80;;;16.10;99.90;;;;;;5029274;28;20045;-84
2021/08/23 03:12:09;;;;;;;3.75;1.73;;;16.10;99.90;;;;;;5029733;28;20479;-84
2021/08/23 03:14:36;;;;;;;4.28;2.10;;;16.10;99.90;;;;;;5029496;28;20052;-84
2021/08/23 03:17:05;;;;;;;3.58;1.88;;;16.10;99.90;;;;;;5029617;28;20061;-84
2021/08/23 03:19:32;;;;;;;5.00;2.03;;;16.10;99.90;;;;;;5029328;28;20037;-84
2021/08/23 03:21:59;;;;;;;6.45;2.30;;;16.10;99.90;;;;;;5028944;28;20522;-82
2021/08/23 03:24:26;;;;;;;4.15;1.70;;;16.10;99.90;;;;;;5029503;28;20578;-84
2021/08/23 03:26:54;;;;;;;4.50;1.77;;;16.10;99.90;;;;;;5028972;28;20132;-83
2021/08/23 03:29:21;;;;;;;3.92;1.67;;;16.10;99.90;;;;;;5029215;28;20045;-83
2021/08/23 03:31:48;;;;;;;4.60;1.88;;;16.10;99.90;;;;;;5029554;28;20056;-83
2021/08/23 03:34:17;;;;;;;3.63;1.80;;;16.10;99.90;;;;;;5029177;28;20045;-86
2021/08/23 03:36:46;;;;;;;4.95;1.95;;;16.10;99.90;;;;;;5029476;28;20414;-81
2021/08/23 03:39:16;;;;;;;4.50;2.10;;;16.10;99.90;;;;;;5029329;28;20172;-81
2021/08/23 03:41:43;;;;;;;7.65;2.30;;;16.10;99.90;;;;;;5029216;28;20057;-82
2021/08/23 03:44:10;;;;;;;4.80;1.80;;;16.10;99.90;;;;;;5028824;28;20403;-81
2021/08/23 03:46:37;;;;;;;4.00;1.90;;;16.10;99.90;;;;;;5029090;28;20045;-81
2021/08/23 03:49:05;;;;;;;3.60;1.65;;;16.10;99.90;;;;;;5028991;28;20056;-81
2021/08/23 03:51:34;;;;;;;3.72;1.90;;;16.10;99.90;;;;;;5021064;28;20049;-82
2021/08/23 03:54:01;;;;;;;4.43;1.77;;;16.10;99.90;;;;;;5029390;28;20050;-82
2021/08/23 03:56:28;;;;;;;3.83;1.73;;;16.10;99.90;;;;;;5028952;28;20447;-82
2021/08/23 03:58:56;;;;;;;3.65;1.80;;;16.10;99.90;;;;;;5029547;28;20049;-83
2021/08/23 04:01:23;;;;;;;5.80;2.13;;;16.10;99.90;;;;;;5029054;28;20045;-82
2021/08/23 04:03:50;;;;;;;5.70;2.10;;;16.10;99.90;;;;;;5029128;28;20483;-82
2021/08/23 04:06:17;;;;;;;4.38;1.90;;;16.10;99.90;;;;;;5028622;28;20129;-82
2021/08/23 04:08:45;;;;;;;5.20;1.98;;;16.10;99.90;;;;;;5029260;28;20136;-82
2021/08/23 04:11:13;;;;;;;4.28;1.70;;;16.10;99.90;;;;;;5029152;28;20137;-81
2021/08/23 04:13:41;;;;;;;3.30;1.80;;;16.10;99.90;;;;;;5029719;28;20048;-87
2021/08/23 04:16:12;;;;;;;4.25;1.67;;;16.10;99.90;;;;;;5030453;28;20483;-87
2021/08/23 04:18:39;;;;;;;4.57;2.00;;;16.10;99.90;;;;;;5029506;28;21238;-85
2021/08/23 04:21:06;;;;;;;3.65;1.88;;;16.10;99.90;;;;;;5028852;28;20053;-83
2021/08/23 04:23:33;;;;;;;4.25;1.92;;;16.10;99.90;;;;;;5029802;28;20134;-86
2021/08/23 04:26:02;;;;;;;4.47;2.00;;;16.10;99.90;;;;;;5029598;28;20045;-86
2021/08/23 04:28:29;;;;;;;4.45;1.92;;;16.10;99.90;;;;;;5029640;28;20055;-85
2021/08/23 04:30:56;;;;;;;4.63;1.90;;;16.20;99.90;;;;;;5029784;28;20048;-86
2021/08/23 04:33:23;;;;;;;4.03;1.80;;;16.20;99.90;;;;;;5030598;28;20410;-86
2021/08/23 04:35:50;;;;;;;4.88;1.90;;;16.10;99.90;;;;;;5030538;28;20045;-88
2021/08/23 04:38:17;;;;;;;4.63;1.90;;;16.10;99.90;;;;;;5035111;28;20045;-89
2021/08/23 04:40:44;;;;;;;4.43;1.98;;;16.10;99.90;;;;;;5036107;28;20056;-88
2021/08/23 04:43:13;;;;;;;4.10;1.90;;;16.10;99.90;;;;;;5036009;28;20136;-85
2021/08/23 04:45:40;;;;;;;5.38;2.00;;;16.10;99.90;;;;;;5036406;28;20483;-86
2021/08/23 04:48:07;;;;;;;4.30;1.98;;;16.10;99.90;;;;;;5036905;28;20046;-88
2021/08/23 04:50:34;;;;;;;5.25;2.30;;;16.10;99.90;;;;;;5036729;28;20052;-88
2021/08/23 04:53:01;;;;;;;4.30;2.20;;;16.10;99.90;;;;;;5036513;28;20486;-88
2021/08/23 04:55:28;;;;;;;4.25;2.08;;;16.10;99.90;;;;;;5036519;28;20406;-88
2021/08/23 04:57:55;;;;;;;3.92;2.00;;;16.10;99.90;;;;;;5036550;28;20051;-88
2021/08/23 05:00:24;;;;;;;4.85;2.20;;;16.10;99.90;;;;;;5036605;28;20474;-88
2021/08/23 05:02:51;;;;;;;3.90;1.80;;;16.10;99.90;;;;;;5036753;28;20132;-88
2021/08/23 05:05:18;;;;;;;5.00;2.10;;;16.10;99.90;;;;;;5036210;28;20045;-87
2021/08/23 05:07:45;;;;;;;4.90;2.05;;;16.10;99.90;;;;;;5036135;28;20136;-88
2021/08/23 05:10:12;;;;;;;5.82;2.15;;;16.10;99.90;;;;;;5035925;28;20060;-88
2021/08/23 05:12:39;;;;;;;4.40;2.08;;;16.20;99.90;;;;;;5035876;28;20053;-87
2021/08/23 05:15:08;;;;;;;5.10;2.03;;;16.10;99.90;;;;;;5035859;28;20055;-87
2021/08/23 05:17:36;;;;;;;3.72;2.10;;;16.10;99.90;;;;;;5035784;28;20049;-88
2021/08/23 05:20:04;;;;;;;4.68;2.42;;;16.10;99.90;;;;;;5035606;28;20052;-87
2021/08/23 05:22:31;;;;;;;4.95;2.17;;;16.10;99.90;;;;;;5035443;28;20506;-88
2021/08/23 05:25:01;;;;;;;4.63;2.05;;;16.10;99.90;;;;;;5035112;28;20128;-87
2021/08/23 05:27:28;;;;;;;4.22;1.83;;;16.10;99.90;;;;;;5035662;28;20055;-85
2021/08/23 05:29:55;;;;;;;5.22;2.40;;;16.10;99.90;;;;;;5035220;28;20051;-88
2021/08/23 05:32:22;;;;;;;5.03;2.17;;;16.10;99.90;;;;;;5035410;28;20272;-87
2021/08/23 05:34:50;;;;;;;4.85;2.35;;;16.10;99.90;;;;;;5035331;28;20049;-87
2021/08/23 05:37:17;;;;;;;4.95;2.08;;;16.10;99.90;;;;;;5035478;28;20046;-88
2021/08/23 05:39:44;;;;;;;4.55;1.70;;;16.20;99.90;;;;;;5035096;28;20076;-87
2021/08/23 05:42:11;;;;;;;4.68;2.10;;;16.10;99.90;;;;;;5035440;28;20140;-87
2021/08/23 05:44:38;;;;;;;5.28;1.98;;;16.20;99.90;;;;;;5035015;28;20467;-87
2021/08/23 05:47:06;;;;;;;5.38;2.30;;;16.20;99.90;;;;;;5035035;28;20056;-87
2021/08/23 05:49:33;;;;;;;4.45;2.08;;;16.20;99.90;;;;;;5034493;28;20050;-87
2021/08/23 05:52:02;;;;;;;4.13;1.67;;;16.20;99.90;;;;;;5034810;28;20406;-86
2021/08/23 05:54:29;;;;;;;4.80;1.92;;;16.20;99.90;;;;;;5034785;28;20049;-87
2021/08/23 05:56:57;;;;;;;4.50;1.90;;;16.20;99.90;;;;;;5034980;28;20052;-86
2021/08/23 05:59:24;;;;;;;4.00;1.83;;;16.20;99.90;;;;;;5035015;28;20053;-87
2021/08/23 06:01:54;;;;;;;4.30;1.90;;;16.20;99.90;;;;;;5034746;28;20148;-87
2021/08/23 06:04:21;;;;;;;3.60;1.80;;;16.30;99.90;;;;;;5034688;28;20057;-88
2021/08/23 06:06:48;;;;;;;4.45;2.17;;;16.30;99.90;;;;;;5034567;28;20136;-87
2021/08/23 06:09:17;;;;;;;4.22;2.00;;;16.40;99.90;;;;;;5034547;28;20053;-87
2021/08/23 06:11:45;;;;;;;5.15;1.77;;;16.40;99.90;;;;;;5034574;28;20144;-87
2021/08/23 06:14:12;;;;;;;4.63;2.10;;;16.50;99.90;;;;;;5034500;28;20501;-88
2021/08/23 06:16:39;;;;;;;3.95;1.75;;;16.50;99.90;;;;;;5034561;28;20049;-87
2021/08/23 06:19:07;;;;;;;4.43;2.17;;;16.60;99.90;;;;;;5034352;28;20142;-87
2021/08/23 06:21:35;;;;;;;4.00;1.90;;;16.60;99.90;;;;;;5034254;28;20124;-87
2021/08/23 06:24:02;;;;;;;6.20;2.33;;;16.70;99.90;;;;;;5034252;28;20483;-86
2021/08/23 06:26:30;;;;;;;6.05;2.20;;;16.60;99.90;;;;;;5034540;28;20069;-87
2021/08/23 06:28:57;;;;;;;3.70;1.98;;;16.60;99.90;;;;;;5034294;28;20042;-87
2021/08/23 06:31:24;;;;;;;4.88;2.33;;;16.60;99.90;;;;;;5034334;28;20444;-87
2021/08/23 06:33:51;;;;;;;4.80;1.80;;;16.60;99.90;;;;;;5034166;28;20049;-87
2021/08/23 06:36:19;;;;;;;5.05;2.42;;;16.60;99.90;;;;;;5034135;28;20057;-87
2021/08/23 06:38:46;;;;;;;4.40;2.00;;;16.60;99.90;;;;;;5034271;28;20403;-87
2021/08/23 06:41:17;;;;;;;4.70;1.90;;;16.60;99.90;;;;;;5034138;28;20049;-89
2021/08/23 06:43:46;;;;;;;5.47;1.90;;;16.60;99.90;;;;;;5033880;28;20054;-87
2021/08/23 06:46:13;;;;;;;4.03;1.90;;;16.60;99.90;;;;;;5033799;28;20140;-87
2021/08/23 06:48:41;;;;;;;3.10;1.70;;;16.60;99.90;;;;;;5034380;28;20507;-87
2021/08/23 06:51:08;;;;;;;3.80;1.90;;;16.70;99.90;;;;;;5034101;28;20056;-87
2021/08/23 06:53:35;;;;;;;3.92;1.80;;;16.70;99.90;;;;;;5033981;28;20056;-87
2021/08/23 06:56:02;;;;;;;5.53;1.90;;;16.70;99.90;;;;;;5033932;28;20414;-88
2021/08/23 06:58:29;;;;;;;4.50;1.80;;;16.70;99.90;;;;;;5035085;28;20045;-88
2021/08/23 07:00:57;;;;;;;4.28;1.80;;;16.80;99.90;;;;;;5033189;28;20092;-86
2021/08/23 07:03:24;;;;;;;4.93;2.10;;;16.80;99.90;;;;;;5033766;28;20056;-87
2021/08/23 07:05:51;;;;;;;3.92;1.90;;;16.80;99.90;;;;;;5033851;28;20052;-87
2021/08/23 07:08:18;;;;;;;6.07;2.10;;;16.80;99.90;;;;;;5033736;28;20055;-88
2021/08/23 07:10:45;;;;;;;4.45;1.92;;;16.80;99.90;;;;;;5033400;28;20509;-88
2021/08/23 07:13:12;;;;;;;5.18;2.10;;;16.80;99.90;;;;;;5033417;28;20136;-87
2021/08/23 07:15:39;;;;;;;4.72;1.95;;;16.90;99.90;;;;;;5033359;28;20414;-88
2021/08/23 07:18:08;;;;;;;5.97;1.92;;;16.90;99.90;;;;;;5033744;28;20045;-87
2021/08/23 07:20:35;;;;;;;4.82;2.00;;;16.90;99.90;;;;;;5033525;28;20109;-87
2021/08/23 07:23:02;;;;;;;6.22;2.00;;;16.90;99.90;;;;;;5033732;28;20141;-88
2021/08/23 07:25:29;;;;;;;4.40;1.98;;;16.90;99.90;;;;;;5033496;28;20406;-88
2021/08/23 07:27:57;;;;;;;3.97;2.08;;;16.90;99.90;;;;;;5033408;28;20092;-88
2021/08/23 07:30:24;;;;;;;5.13;2.10;;;17.00;99.90;;;;;;5033639;28;20053;-87
2021/08/23 07:32:51;;;;;;;3.63;1.80;;;17.00;99.90;;;;;;5033378;28;20047;-87
2021/08/23 07:35:19;;;;;;;3.75;1.80;;;17.00;99.90;;;;;;5033496;28;20048;-87
2021/08/23 07:37:48;;;;;;;4.95;2.00;;;17.10;99.90;;;;;;5034011;28;20041;-87
2021/08/23 07:40:17;;;;;;;4.82;2.40;;;17.10;99.90;;;;;;5033645;28;20124;-89
2021/08/23 07:42:44;;;;;;;4.60;1.80;;;17.20;99.90;;;;;;5033020;28;20080;-88
2021/08/23 07:45:13;;;;;;;4.90;2.15;;;17.20;99.90;;;;;;5033103;28;20061;-87
2021/08/23 07:47:41;;;;;;;4.40;1.80;;;17.20;99.90;;;;;;5033261;28;20498;-87
2021/08/23 07:50:10;;;;;;;4.07;1.90;;;17.30;99.90;;;;;;5033034;28;20050;-87
2021/08/23 07:52:39;;;;;;;5.35;1.83;;;17.30;99.90;;;;;;5033323;28;20046;-87
2021/08/23 07:55:07;;;;;;;4.75;1.92;;;17.40;99.90;;;;;;5033619;28;20057;-88
2021/08/23 07:57:34;;;;;;;5.95;1.92;;;17.40;99.90;;;;;;5034100;28;20479;-88
2021/08/23 08:00:02;;;;;;;4.28;1.80;;;17.50;99.90;;;;;;5033594;28;20056;-88
2021/08/23 08:02:29;;;;;;;5.55;2.05;;;17.50;99.90;;;;;;5033126;28;20045;-88
2021/08/23 08:04:56;;;;;;;6.22;2.10;;;17.60;99.90;;;;;;5032933;28;20046;-88
2021/08/23 08:07:23;;;;;;;3.88;1.80;;;17.50;99.90;;;;;;5032877;28;20045;-89
2021/08/23 08:09:51;;;;;;;4.22;2.10;;;17.60;99.90;;;;;;5033041;28;20068;-89
2021/08/23 08:12:18;;;;;;;4.78;1.70;;;17.60;99.90;;;;;;5033820;28;20045;-90
2021/08/23 08:14:45;;;;;;;3.63;1.80;;;17.60;99.90;;;;;;5037730;28;20041;-87
2021/08/23 08:17:12;;;;;;;4.82;1.83;;;17.60;99.90;;;;;;5037413;28;20051;-88
2021/08/23 08:19:41;;;;;;;5.85;2.20;;;17.70;99.90;;;;;;5037337;28;20049;-89
2021/08/23 08:22:09;;;;;;;4.05;1.70;;;17.80;99.90;;;;;;5034864;28;20041;-88
2021/08/23 08:24:37;;;;;;;5.15;2.05;;;17.90;99.90;;;;;;5036726;28;20059;-92
2021/08/23 08:27:06;;;;;;;3.70;1.90;;;18.00;99.90;;;;;;5037088;28;20060;-90
2021/08/23 08:29:33;;;;;;;4.78;2.10;;;18.00;99.90;;;;;;5037273;28;20049;-90
2021/08/23 08:32:00;;;;;;;4.72;1.80;;;18.00;99.90;;;;;;5037438;28;20084;-91
2021/08/23 08:34:28;;;;;;;6.38;2.10;;;18.10;99.90;;;;;;5037310;28;20510;-89
2021/08/23 08:36:55;;;;;;;3.85;1.80;;;18.20;99.90;;;;;;5036811;28;20552;-90
2021/08/23 08:39:22;;;;;;;6.55;2.50;;;18.30;99.90;;;;;;5038068;28;20052;-90
2021/08/23 08:41:49;;;;;;;10.30;2.63;;;18.40;99.90;;;;;;5037566;28;20128;-90
2021/08/23 08:44:18;;;;;;;6.05;2.17;;;18.50;99.90;;;;;;5037255;28;20388;-89
2021/08/23 08:46:46;;;;;;;5.25;2.50;;;18.50;99.90;;;;;;5036870;28;20128;-88
2021/08/23 08:49:13;;;;;;;4.82;1.90;;;18.60;99.90;;;;;;5036415;28;20462;-89
2021/08/23 08:51:41;;;;;;;5.70;2.30;;;18.60;99.60;;;;;;5036329;28;20597;-89
2021/08/23 08:54:08;;;;;;;10.73;2.70;;;18.70;99.70;;;;;;5036455;28;20457;-89
2021/08/23 08:56:36;;;;;;;4.90;1.88;;;18.70;99.10;;;;;;5036565;28;20140;-89
2021/08/23 08:59:05;;;;;;;4.53;1.80;;;18.70;99.20;;;;;;5035894;28;20142;-80
2021/08/23 09:01:34;;;;;;;6.65;2.15;;;18.70;99.20;;;;;;5035989;28;20073;-90
2021/08/23 09:04:03;;;;;;;7.68;2.05;;;18.80;99.20;;;;;;5035191;28;20045;-92
2021/08/23 09:06:41;;;;;;;4.35;1.63;;;19.00;99.20;;;;;;5036560;28;20046;-91
2021/08/23 09:09:13;;;;;;;5.35;1.70;;;19.10;99.30;;;;;;5036634;28;20555;-90
2021/08/23 09:11:41;;;;;;;5.10;1.92;;;19.20;99.00;;;;;;5016846;28;20080;-92
2021/08/23 09:14:10;;;;;;;5.13;2.25;;;19.30;98.70;;;;;;5017042;28;20061;-89
2021/08/23 09:16:44;;;;;;;4.30;2.00;;;19.20;98.00;;;;;;5035178;28;20041;-89
2021/08/23 09:19:24;;;;;;;4.32;1.98;;;19.20;98.30;;;;;;5035945;28;20045;-89
2021/08/23 09:22:00;;;;;;;3.55;1.80;;;19.30;98.20;;;;;;5036091;28;20057;-90
2021/08/23 09:24:32;;;;;;;4.90;1.92;;;19.30;98.60;;;;;;5031205;28;20140;-81
2021/08/23 09:27:06;;;;;;;4.03;1.90;;;19.40;98.50;;;;;;5034781;28;20045;-82
2021/08/23 09:29:55;;;;;;;5.10;2.07;;;19.60;98.50;;;;;;5034952;28;20053;-84
2021/08/23 09:32:25;;;;;;;5.10;2.00;;;19.60;97.60;;;;;;5043633;28;20052;-83
2021/08/23 09:34:53;;;;;;;4.70;2.00;;;19.60;97.40;;;;;;5037454;28;20156;-83
2021/08/23 09:37:21;;;;;;;5.05;2.20;;;19.60;97.70;;;;;;5034962;28;20049;-84
2021/08/23 09:39:49;;;;;;;4.93;2.22;;;19.50;97.70;;;;;;5034914;28;20050;-83
2021/08/23 09:42:20;;;;;;;4.38;1.80;;;19.50;97.70;;;;;;5034854;28;20053;-83
2021/08/23 09:44:48;;;;;;;4.32;1.73;;;19.40;97.90;;;;;;5034146;28;20220;-83
2021/08/23 09:47:16;;;;;;;5.60;1.92;;;19.40;98.30;;;;;;5019571;28;20511;-83
2021/08/23 09:49:46;;;;;;;7.22;2.40;;;19.50;98.00;;;;;;5015071;28;20137;-83
2021/08/23 09:52:21;;;;;;;5.55;2.20;;;19.50;97.60;;;;;;5022117;28;20451;-82
2021/08/23 09:55:00;;;;;;;4.72;2.03;;;19.40;98.10;;;;;;5034591;28;20041;-89
2021/08/23 09:57:28;;;;;;;5.30;2.15;;;19.40;97.90;;;;;;5029699;28;20054;-90
2021/08/23 09:59:56;;;;;;;4.38;2.00;;;19.40;98.00;;;;;;5035272;28;20049;-89
2021/08/23 10:02:25;;;;;;;4.80;1.73;;;19.50;98.00;;;;;;5035707;28;20125;-88
2021/08/23 10:04:55;;;;;;;3.83;2.03;;;19.50;98.30;;;;;;5034429;28;20144;-89
2021/08/23 10:07:26;;;;;;;4.80;2.30;;;19.50;97.70;;;;;;5035698;28;20052;-89
2021/08/23 10:09:54;;;;;;;5.57;2.20;;;19.50;97.70;;;;;;5033712;28;20063;-87
2021/08/23 10:12:21;;;;;;;5.57;2.22;;;19.50;97.50;;;;;;5034096;28;20055;-90
2021/08/23 10:14:48;;;;;;;4.38;2.00;;;19.50;97.40;;;;;;5034722;28;20509;-91
2021/08/23 10:17:15;;;;;;;4.38;1.85;;;19.60;97.50;;;;;;5035881;28;20051;-91
2021/08/23 10:19:44;;;;;;;4.32;1.77;;;19.60;97.80;;;;;;5035204;28;20487;-91
2021/08/23 10:22:15;;;;;;;4.38;1.98;;;19.80;97.80;;;;;;5035100;28;20057;-89
2021/08/23 10:24:42;;;;;;;4.82;2.10;;;19.80;97.70;;;;;;5034163;28;20049;-90
2021/08/23 10:27:10;;;;;;;6.40;2.28;;;19.90;97.10;;;;;;5034633;28;20129;-91
2021/08/23 10:29:42;;;;;;;3.63;1.80;;;20.00;97.00;;;;;;5033309;28;20395;-91
2021/08/23 10:32:10;;;;;;;3.40;1.60;;;20.10;96.80;;;;;;5034722;28;20487;-91
2021/08/23 10:34:38;;;;;;;3.70;1.60;;;20.20;97.00;;;;;;5034675;28;20045;-90
2021/08/23 10:37:19;;;;;;;3.72;1.60;;;20.40;97.00;;;;;;5034364;28;20052;-91
2021/08/23 10:39:58;;;;;;;4.40;1.98;;;20.50;96.80;;;;;;5030811;28;20401;-90
2021/08/23 10:42:37;;;;;;;3.45;1.60;;;20.70;96.60;;;;;;5032426;28;20096;-91
2021/08/23 10:45:10;;;;;;;4.07;1.73;;;20.70;96.50;;;;;;5032452;28;20387;-91
2021/08/23 10:47:37;;;;;;;4.13;1.88;;;20.70;96.20;;;;;;5031893;28;20060;-92
2021/08/23 10:50:07;;;;;;;4.47;1.83;;;20.70;95.90;;;;;;5032023;28;20052;-91
2021/08/23 10:52:36;;;;;;;4.38;1.90;;;20.60;95.00;;;;;;5031253;28;20168;-92
2021/08/23 10:55:08;;;;;;;4.18;1.98;;;20.50;95.30;;;;;;5032106;28;20060;-93
2021/08/23 10:57:35;;;;;;;5.28;1.77;;;20.40;95.50;;;;;;5031054;28;20052;-91
2021/08/23 11:00:11;;;;;;;4.53;2.03;;;20.30;95.80;;;;;;5032335;28;20491;-92
2021/08/23 11:02:40;;;;;;;5.55;2.10;;;20.10;97.10;;;;;;5031580;28;20465;-92
2021/08/23 11:05:12;;;;;;;4.45;2.30;;;19.80;98.60;;;;;;5031784;28;20107;-91
2021/08/23 11:07:44;;;;;;;5.50;2.35;;;19.60;99.60;;;;;;5031533;28;20049;-91
2021/08/23 11:10:13;;;;;;;5.00;2.40;;;19.40;99.90;;;;;;5031237;28;20041;-89
2021/08/23 11:12:46;;;;;;;5.40;2.70;;;19.10;99.90;;;;;;5032932;28;20067;-92
2021/08/23 11:15:19;;;;;;;5.90;2.35;;;18.80;99.90;;;;;;5033183;28;20521;-91
2021/08/23 11:17:50;;;;;;;4.63;2.20;;;18.70;99.90;;;;;;5033205;28;20057;-92
2021/08/23 11:20:25;;;;;;;6.05;2.70;;;18.50;99.90;;;;;;5033678;28;20056;-91
2021/08/23 11:22:57;;;;;;;5.43;2.20;;;18.50;99.90;;;;;;5033384;28;20490;-92
2021/08/23 11:25:30;;;;;;;4.57;1.98;;;18.50;99.90;;;;;;5033285;28;20052;-91
2021/08/23 11:27:57;;;;;;;4.85;1.83;;;18.50;99.90;;;;;;5032700;28;20045;-91
2021/08/23 11:30:32;;;;;;;4.03;1.85;;;18.60;99.90;;;;;;5033327;28;20057;-93
2021/08/23 11:33:01;;;;;;;3.95;1.90;;;18.70;99.90;;;;;;5034657;28;20045;-92
2021/08/23 11:35:29;;;;;;;3.60;1.77;;;18.80;99.90;;;;;;5035053;28;20060;-93
2021/08/23 11:38:00;;;;;;;3.88;1.80;;;18.90;99.90;;;;;;5038382;28;20045;-92
2021/08/23 11:40:28;;;;;;;3.63;1.63;;;19.00;99.90;;;;;;5039827;28;20068;-92
2021/08/23 11:42:57;;;;;;;4.78;1.85;;;19.20;99.90;;;;;;5041508;28;20108;-92
2021/08/23 11:45:27;;;;;;;4.85;1.98;;;19.30;99.90;;;;;;5039526;28;20049;-90
2021/08/23 11:47:55;;;;;;;4.88;1.80;;;19.50;99.90;;;;;;5032963;28;20483;-89
2021/08/23 11:50:23;;;;;;;4.68;1.70;;;19.60;99.90;;;;;;5031062;28;20406;-89
2021/08/23 11:52:51;;;;;;;3.92;1.60;;;19.80;99.90;;;;;;5031187;28;20468;-88
2021/08/23 11:55:29;;;;;;;3.85;1.40;;;19.80;99.90;;;;;;5031400;28;20403;-87
2021/08/23 11:58:02;;;;;;;2.92;1.35;;;19.90;99.90;;;;;;5031178;28;20045;-88
2021/08/23 12:00:30;;;;;;;3.40;1.50;;;19.90;99.90;;;;;;5031890;28;20085;-93
2021/08/23 12:03:09;;;;;;;4.70;1.80;;;19.90;99.90;;;;;;5032189;28;20045;-92
2021/08/23 12:05:40;;;;;;;4.07;1.60;;;19.90;99.90;;;;;;5031774;28;20499;-92
2021/08/23 12:08:09;;;;;;;5.15;2.03;;;20.00;99.90;;;;;;5032345;28;20064;-92
2021/08/23 12:10:39;;;;;;;4.10;1.80;;;20.10;99.90;;;;;;5031460;28;20042;-92
2021/08/23 12:13:11;;;;;;;3.95;2.10;;;20.10;99.90;;;;;;5031724;28;20402;-92
2021/08/23 12:15:54;;;;;;;3.78;1.90;;;20.20;99.90;;;;;;5031585;28;20056;-92
2021/08/23 12:18:31;;;;;;;4.03;1.92;;;20.30;99.90;;;;;;5033029;28;20112;-92
2021/08/23 12:21:14;;;;;;;3.72;2.05;;;20.30;99.90;;;;;;5033879;28;20128;-92
2021/08/23 12:23:51;;;;;;;3.03;1.65;;;20.40;99.90;;;;;;5031618;28;20046;-92
2021/08/23 12:26:27;;;;;;;3.28;1.67;;;20.50;99.90;;;;;;5032421;28;20073;-92
2021/08/23 12:28:56;;;;;;;3.17;1.50;;;20.70;99.90;;;;;;5031984;28;20457;-91
2021/08/23 12:31:24;;;;;;;2.70;1.42;;;20.90;99.90;;;;;;5032203;28;20399;-89
2021/08/23 12:33:51;;;;;;;2.92;1.50;;;21.00;99.90;;;;;;5032291;28;20053;-90
2021/08/23 12:36:18;;;;;;;3.25;1.48;;;21.10;99.90;;;;;;5030401;28;20049;-92
2021/08/23 12:38:45;;;;;;;3.70;1.35;;;21.20;99.90;;;;;;5031721;28;20042;-89
2021/08/23 12:41:13;;;;;;;4.25;1.70;;;21.20;99.90;;;;;;5031634;28;20576;-92
2021/08/23 12:43:44;;;;;;;3.67;1.50;;;21.30;99.90;;;;;;5031710;28;20056;-91
2021/08/23 12:46:11;;;;;;;3.70;1.60;;;21.40;99.90;;;;;;5031882;28;20229;-92
2021/08/23 12:48:38;;;;;;;3.90;1.73;;;21.40;99.60;;;;;;5031614;28;20128;-92
2021/08/23 12:51:06;;;;;;;3.65;1.58;;;21.30;99.60;;;;;;5030992;28;20388;-90
2021/08/23 12:53:33;;;;;;;3.38;1.67;;;21.30;99.90;;;;;;5031687;28;20414;-90
2021/08/23 12:56:00;;;;;;;2.97;1.60;;;21.30;99.90;;;;;;5032027;28;20113;-91